createdAt,value
2018-10-18T00:00:22.611Z,21.17
2018-10-18T00:02:50.006Z,20.00
2018-10-18T00:05:17.440Z,21.10
2018-10-18T00:07:44.854Z,20.50
2018-10-18T00:10:12.272Z,20.47
2018-10-18T00:12:39.663Z,21.83
2018-10-18T00:15:07.087Z,20.97
2018-10-18T00:17:34.505Z,19.73
2018-10-18T00:20:01.929Z,19.57
2018-10-18T00:22:29.331Z,20.63
2018-10-18T00:24:56.723Z,20.33
2018-10-18T00:27:24.156Z,21.37
2018-10-18T00:29:51.555Z,21.67
2018-10-18T00:32:18.974Z,21.43
2018-10-18T00:34:46.374Z,20.23
2018-10-18T00:37:13.778Z,21.00
2018-10-18T00:39:41.203Z,19.27
2018-10-18T00:42:08.634Z,20.27
2018-10-18T00:44:36.040Z,19.93
2018-10-18T00:47:03.444Z,20.60
2018-10-18T00:49:30.863Z,19.67
2018-10-18T00:51:58.287Z,20.53
2018-10-18T00:54:25.728Z,20.40
2018-10-18T00:56:53.131Z,18.50
2018-10-18T00:59:20.559Z,19.03
2018-10-18T01:01:47.961Z,20.03
2018-10-18T01:04:15.381Z,20.13
2018-10-18T01:06:42.809Z,19.33
2018-10-18T01:09:10.208Z,20.97
2018-10-18T01:11:37.689Z,19.40
2018-10-18T01:14:05.183Z,20.57
2018-10-18T01:16:32.530Z,20.40
2018-10-18T01:18:59.956Z,20.77
2018-10-18T01:21:27.385Z,20.30
2018-10-18T01:23:54.816Z,20.33
2018-10-18T01:26:22.221Z,20.83
2018-10-18T01:28:49.617Z,20.60
2018-10-18T01:31:17.030Z,19.83
2018-10-18T01:33:44.427Z,19.27
2018-10-18T01:36:11.839Z,19.43
2018-10-18T01:38:39.253Z,19.07
2018-10-18T01:41:06.670Z,20.13
2018-10-18T01:43:34.130Z,19.27
2018-10-18T01:46:01.496Z,19.77
2018-10-18T01:48:28.928Z,19.90
2018-10-18T01:50:56.367Z,19.47
2018-10-18T01:53:23.758Z,21.40
2018-10-18T01:55:51.199Z,21.07
2018-10-18T01:58:18.587Z,19.63
2018-10-18T02:00:46.010Z,20.73
2018-10-18T02:03:13.469Z,20.97
2018-10-18T02:05:40.908Z,21.60
2018-10-18T02:08:08.356Z,20.73
2018-10-18T02:10:35.747Z,20.63
2018-10-18T02:13:03.164Z,21.80
2018-10-18T02:15:30.570Z,21.83
2018-10-18T02:17:58.014Z,21.57
2018-10-18T02:20:25.404Z,23.27
2018-10-18T02:22:52.824Z,22.37
2018-10-18T02:25:20.321Z,21.23
2018-10-18T02:27:47.750Z,22.07
2018-10-18T02:30:15.269Z,21.53
2018-10-18T02:32:42.585Z,21.73
2018-10-18T02:35:09.998Z,22.80
2018-10-18T02:37:37.516Z,22.93
2018-10-18T02:40:04.936Z,23.37
2018-10-18T02:42:33.203Z,23.63
2018-10-18T02:45:00.613Z,23.17
2018-10-18T02:47:28.051Z,23.27
2018-10-18T02:49:55.454Z,23.77
2018-10-18T02:52:22.880Z,24.30
2018-10-18T02:54:50.292Z,23.97
2018-10-18T02:57:17.691Z,22.37
2018-10-18T02:59:45.101Z,23.53
2018-10-18T03:02:12.525Z,25.77
2018-10-18T03:04:39.954Z,23.17
2018-10-18T03:07:07.373Z,22.80
2018-10-18T03:09:34.796Z,24.63
2018-10-18T03:12:02.250Z,24.60
2018-10-18T03:14:29.610Z,24.27
2018-10-18T03:16:57.019Z,24.97
2018-10-18T03:19:24.448Z,25.13
2018-10-18T03:21:51.859Z,24.80
2018-10-18T03:24:19.419Z,24.73
2018-10-18T03:26:46.692Z,26.03
2018-10-18T03:29:14.127Z,24.27
2018-10-18T03:31:41.512Z,25.47
2018-10-18T03:34:11.454Z,25.90
2018-10-18T03:36:38.889Z,25.47
2018-10-18T03:39:06.299Z,25.27
2018-10-18T03:41:33.804Z,24.87
2018-10-18T03:44:01.149Z,26.90
2018-10-18T03:46:28.607Z,26.40
2018-10-18T03:48:55.995Z,26.37
2018-10-18T03:51:23.429Z,25.70
2018-10-18T03:53:50.849Z,26.93
2018-10-18T03:56:18.258Z,26.37
2018-10-18T03:58:45.646Z,26.70
2018-10-18T04:01:13.077Z,24.70
2018-10-18T04:03:40.470Z,26.87
2018-10-18T04:06:08.015Z,26.30
2018-10-18T04:08:35.309Z,27.37
2018-10-18T04:11:02.755Z,25.13
2018-10-18T04:13:30.165Z,25.90
2018-10-18T04:15:57.616Z,29.23
2018-10-18T04:18:25.098Z,26.80
2018-10-18T04:20:52.499Z,27.23
2018-10-18T04:23:19.928Z,27.63
2018-10-18T04:25:47.348Z,28.27
2018-10-18T04:28:14.777Z,27.97
2018-10-18T04:30:42.189Z,28.33
2018-10-18T04:33:09.625Z,28.23
2018-10-18T04:35:38.010Z,28.77
2018-10-18T04:38:05.392Z,26.03
2018-10-18T04:40:32.815Z,28.83
2018-10-18T04:43:00.223Z,28.87
2018-10-18T04:45:27.634Z,27.40
2018-10-18T04:47:55.105Z,29.07
2018-10-18T04:50:22.452Z,26.93
2018-10-18T04:52:49.904Z,28.47
2018-10-18T04:55:17.425Z,28.53
2018-10-18T04:57:44.709Z,28.40
2018-10-18T05:00:12.129Z,28.90
2018-10-18T05:02:39.569Z,30.77
2018-10-18T05:05:40.476Z,29.70
2018-10-18T05:08:07.909Z,27.93
2018-10-18T05:10:35.303Z,28.47
2018-10-18T05:13:02.803Z,28.73
2018-10-18T05:15:30.150Z,27.07
2018-10-18T05:17:57.588Z,29.97
2018-10-18T05:20:24.997Z,28.20
2018-10-18T05:22:52.456Z,29.87
2018-10-18T05:25:19.920Z,27.70
2018-10-18T05:27:47.266Z,29.77
2018-10-18T05:30:14.666Z,31.53
2018-10-18T05:32:42.082Z,27.13
2018-10-18T05:35:09.479Z,27.93
2018-10-18T05:37:36.950Z,30.77
2018-10-18T05:40:04.326Z,31.40
2018-10-18T05:42:31.728Z,30.23
2018-10-18T05:44:59.159Z,29.77
2018-10-18T05:47:26.552Z,32.70
2018-10-18T05:49:53.962Z,30.70
2018-10-18T05:52:21.396Z,30.83
2018-10-18T05:54:48.794Z,31.47
2018-10-18T05:57:16.246Z,29.57
2018-10-18T05:59:43.652Z,31.20
2018-10-18T06:02:11.066Z,34.17
2018-10-18T06:04:40.915Z,30.20
2018-10-18T06:07:08.422Z,30.63
2018-10-18T06:09:35.742Z,30.37
2018-10-18T06:12:03.170Z,31.77
2018-10-18T06:14:30.565Z,32.63
2018-10-18T06:16:58.006Z,33.53
2018-10-18T06:19:25.436Z,33.50
2018-10-18T06:21:52.844Z,36.23
2018-10-18T06:24:20.232Z,32.23
2018-10-18T06:26:47.637Z,31.03
2018-10-18T06:29:15.139Z,33.13
2018-10-18T06:31:42.490Z,31.03
2018-10-18T06:34:11.473Z,33.53
2018-10-18T06:36:38.929Z,31.70
2018-10-18T06:39:06.447Z,32.97
2018-10-18T06:41:33.854Z,31.10
2018-10-18T06:44:01.257Z,33.27
2018-10-18T06:46:28.717Z,31.87
2018-10-18T06:48:56.238Z,32.93
2018-10-18T06:51:23.617Z,34.90
2018-10-18T06:53:51.052Z,31.73
2018-10-18T06:56:18.479Z,31.77
2018-10-18T06:58:45.900Z,34.50
2018-10-18T07:01:13.320Z,34.70
2018-10-18T07:03:40.774Z,32.80
2018-10-18T07:06:08.196Z,33.90
2018-10-18T07:08:35.595Z,33.90
2018-10-18T07:11:03.140Z,35.53
2018-10-18T07:13:30.446Z,33.73
2018-10-18T07:15:57.859Z,38.70
2018-10-18T07:18:25.258Z,37.63
2018-10-18T07:20:52.673Z,36.43
2018-10-18T07:23:20.090Z,38.23
2018-10-18T07:25:47.512Z,40.53
2018-10-18T07:28:14.933Z,40.37
2018-10-18T07:30:42.384Z,43.97
2018-10-18T07:33:09.852Z,43.37
2018-10-18T07:35:37.216Z,45.73
2018-10-18T07:38:04.657Z,46.73
2018-10-18T07:40:32.056Z,47.27
2018-10-18T07:42:59.505Z,45.83
2018-10-18T07:45:26.953Z,43.20
2018-10-18T07:47:54.383Z,41.07
2018-10-18T07:50:21.791Z,40.13
2018-10-18T07:52:49.267Z,39.00
2018-10-18T07:55:16.759Z,35.83
2018-10-18T07:57:44.160Z,35.87
2018-10-18T08:00:11.770Z,32.10
2018-10-18T08:02:39.008Z,35.93
2018-10-18T08:05:06.426Z,36.13
2018-10-18T08:07:33.867Z,38.43
2018-10-18T08:10:01.320Z,34.53
2018-10-18T08:12:28.677Z,31.63
2018-10-18T08:14:56.072Z,35.33
2018-10-18T08:17:23.530Z,37.67
2018-10-18T08:19:50.937Z,36.87
2018-10-18T08:22:18.391Z,35.10
2018-10-18T08:24:45.776Z,35.57
2018-10-18T08:27:13.225Z,32.97
2018-10-18T08:29:40.627Z,29.93
2018-10-18T08:32:08.115Z,29.10
2018-10-18T08:34:35.480Z,23.57
2018-10-18T08:37:02.993Z,23.47
2018-10-18T08:39:30.342Z,22.40
2018-10-18T08:41:57.762Z,21.03
2018-10-18T08:44:25.234Z,21.10
2018-10-18T08:46:52.616Z,22.40
2018-10-18T08:49:20.047Z,20.53
2018-10-18T08:51:47.468Z,19.70
2018-10-18T08:54:14.878Z,19.17
2018-10-18T08:56:42.301Z,19.20
2018-10-18T08:59:09.760Z,19.13
2018-10-18T09:01:37.110Z,19.40
2018-10-18T09:04:04.544Z,18.47
2018-10-18T09:06:31.951Z,17.80
2018-10-18T09:08:59.409Z,18.13
2018-10-18T09:11:26.757Z,18.80
2018-10-18T09:13:54.191Z,16.10
2018-10-18T09:16:21.654Z,17.17
2018-10-18T09:18:49.054Z,16.10
2018-10-18T09:21:16.444Z,16.07
2018-10-18T09:23:43.873Z,15.30
2018-10-18T09:26:11.449Z,15.90
2018-10-18T09:28:38.809Z,17.97
2018-10-18T09:31:06.319Z,18.10
2018-10-18T09:33:33.652Z,17.40
2018-10-18T09:36:01.059Z,19.20
2018-10-18T09:38:28.528Z,19.40
2018-10-18T09:40:55.878Z,17.03
2018-10-18T09:43:23.300Z,17.47
2018-10-18T09:45:50.711Z,17.67
2018-10-18T09:48:18.128Z,23.47
2018-10-18T09:50:45.556Z,21.93
2018-10-18T09:53:12.987Z,21.40
2018-10-18T09:58:07.814Z,20.87
2018-10-18T10:00:35.242Z,21.87
2018-10-18T10:03:02.636Z,23.17
2018-10-18T10:05:30.177Z,22.33
2018-10-18T10:07:57.568Z,20.83
2018-10-18T10:10:25.005Z,21.17
2018-10-18T10:12:52.493Z,21.30
2018-10-18T10:15:19.865Z,20.63
2018-10-18T10:17:47.474Z,20.00
2018-10-18T10:20:14.767Z,20.03
2018-10-18T10:22:42.189Z,21.83
2018-10-18T10:25:09.675Z,20.40
2018-10-18T10:27:37.082Z,19.33
2018-10-18T10:30:04.529Z,19.43
2018-10-18T10:32:32.024Z,18.13
2018-10-18T10:34:59.455Z,18.23
2018-10-18T10:37:26.860Z,18.33
2018-10-18T10:39:54.323Z,17.77
2018-10-18T10:42:21.685Z,15.60
2018-10-18T10:44:49.132Z,14.07
2018-10-18T10:47:16.513Z,14.27
2018-10-18T10:49:43.942Z,14.60
2018-10-18T10:52:11.421Z,16.23
2018-10-18T10:54:38.770Z,15.37
2018-10-18T10:57:06.259Z,15.60
2018-10-18T10:59:33.622Z,14.07
2018-10-18T11:02:01.104Z,14.27
2018-10-18T11:04:28.540Z,12.30
2018-10-18T11:06:55.910Z,12.13
2018-10-18T11:09:23.422Z,11.70
2018-10-18T11:11:50.817Z,11.80
2018-10-18T11:14:18.247Z,10.73
2018-10-18T11:16:45.609Z,12.33
2018-10-18T11:19:13.155Z,11.93
2018-10-18T11:21:40.617Z,12.67
2018-10-18T11:24:08.094Z,13.40
2018-10-18T11:26:35.466Z,13.20
2018-10-18T11:29:02.862Z,11.73
2018-10-18T11:31:30.287Z,9.57
2018-10-18T11:33:57.704Z,9.67
2018-10-18T11:36:25.114Z,11.90
2018-10-18T11:38:52.540Z,13.43
2018-10-18T11:41:19.969Z,12.30
2018-10-18T11:43:47.370Z,12.23
2018-10-18T11:46:14.780Z,12.70
2018-10-18T11:48:42.191Z,12.20
2018-10-18T11:51:09.609Z,11.13
2018-10-18T11:53:37.007Z,10.97
2018-10-18T11:56:04.492Z,10.60
2018-10-18T11:58:31.862Z,10.47
2018-10-18T12:00:59.303Z,10.93
2018-10-18T12:03:26.708Z,8.70
2018-10-18T12:05:54.129Z,7.37
2018-10-18T12:09:17.425Z,6.60
2018-10-18T12:11:44.948Z,5.87
2018-10-18T12:14:12.504Z,6.63
2018-10-18T12:16:39.887Z,7.17
2018-10-18T12:19:07.493Z,6.30
2018-10-18T12:21:34.869Z,5.60
2018-10-18T12:24:02.339Z,5.40
2018-10-18T12:26:29.810Z,5.23
2018-10-18T12:33:37.523Z,5.80
2018-10-18T12:36:04.966Z,5.70
2018-10-18T12:38:32.370Z,5.83
2018-10-18T12:40:59.917Z,6.30
2018-10-18T12:43:27.205Z,5.70
2018-10-18T12:45:54.603Z,6.37
2018-10-18T12:48:22.173Z,5.50
2018-10-18T12:50:49.450Z,5.17
2018-10-18T12:53:16.886Z,5.07
2018-10-18T12:55:44.298Z,4.50
2018-10-18T12:58:11.802Z,4.80
2018-10-18T13:00:39.304Z,4.80
2018-10-18T13:03:06.699Z,5.30
2018-10-18T13:05:34.128Z,5.10
2018-10-18T13:08:01.527Z,5.63
2018-10-18T13:10:28.957Z,4.93
2018-10-18T13:12:56.350Z,4.90
2018-10-18T13:15:23.764Z,6.93
2018-10-18T13:17:51.165Z,5.00
2018-10-18T13:20:18.671Z,4.80
2018-10-18T13:22:45.966Z,4.10
2018-10-18T13:25:13.418Z,4.03
2018-10-18T13:27:40.778Z,3.87
2018-10-18T13:30:08.232Z,3.20
2018-10-18T13:32:35.643Z,4.27
2018-10-18T13:35:03.102Z,4.03
2018-10-18T13:37:30.500Z,3.67
2018-10-18T13:39:57.920Z,4.00
2018-10-18T13:42:25.374Z,3.80
2018-10-18T13:44:52.725Z,4.00
2018-10-18T13:47:20.308Z,4.77
2018-10-18T13:49:47.667Z,5.10
2018-10-18T13:52:15.219Z,6.23
2018-10-18T13:54:42.632Z,6.57
2018-10-18T13:57:10.046Z,6.40
2018-10-18T14:00:01.238Z,6.47
2018-10-18T14:02:28.625Z,7.33
2018-10-18T14:04:56.074Z,6.43
2018-10-18T14:07:23.435Z,6.50
2018-10-18T14:09:50.865Z,6.50
2018-10-18T14:12:18.269Z,6.63
2018-10-18T14:14:45.743Z,6.70
2018-10-18T14:17:13.385Z,6.27
2018-10-18T14:19:40.596Z,6.50
2018-10-18T14:22:07.986Z,6.63
2018-10-18T14:24:35.422Z,6.40
2018-10-18T14:27:02.857Z,5.97
2018-10-18T14:29:30.273Z,6.47
2018-10-18T14:31:57.731Z,5.80
2018-10-18T14:34:25.093Z,6.57
2018-10-18T14:36:52.494Z,6.73
2018-10-18T14:39:20.046Z,6.90
2018-10-18T14:41:47.445Z,6.80
2018-10-18T14:44:14.885Z,6.43
2018-10-18T14:46:42.287Z,6.87
2018-10-18T14:49:09.670Z,6.30
2018-10-18T14:51:37.065Z,5.57
2018-10-18T14:54:04.498Z,5.33
2018-10-18T14:56:31.912Z,4.63
2018-10-18T14:58:59.355Z,5.80
2018-10-18T15:01:26.767Z,5.73
2018-10-18T15:03:54.172Z,6.83
2018-10-18T15:06:21.568Z,6.70
2018-10-18T15:08:49.010Z,6.30
2018-10-18T15:11:16.458Z,6.50
2018-10-18T15:13:43.825Z,5.83
2018-10-18T15:16:12.173Z,8.40
2018-10-18T15:18:39.532Z,6.70
2018-10-18T15:21:06.951Z,7.87
2018-10-18T15:23:34.365Z,6.57
2018-10-18T15:26:01.847Z,8.63
2018-10-18T15:28:29.213Z,8.37
2018-10-18T15:30:56.712Z,8.50
2018-10-18T15:33:24.103Z,7.90
2018-10-18T15:35:51.521Z,7.60
2018-10-18T15:38:19.146Z,6.20
2018-10-18T15:40:46.353Z,7.33
2018-10-18T15:43:13.753Z,6.60
2018-10-18T15:45:41.185Z,6.27
2018-10-18T15:48:08.595Z,6.60
2018-10-18T15:50:35.987Z,8.83
2018-10-18T15:53:03.630Z,7.87
2018-10-18T15:55:30.935Z,7.83
2018-10-18T15:57:58.356Z,7.00
2018-10-18T16:00:25.841Z,6.10
2018-10-18T16:02:53.176Z,5.17
2018-10-18T16:05:20.572Z,6.97
2018-10-18T16:07:48.014Z,5.77
2018-10-18T16:10:15.444Z,4.70
2018-10-18T16:12:42.822Z,5.03
2018-10-18T16:15:10.228Z,5.47
2018-10-18T16:17:37.660Z,5.33
2018-10-18T16:20:05.063Z,5.23
2018-10-18T16:22:32.420Z,4.40
2018-10-18T16:24:59.839Z,4.67
2018-10-18T16:27:27.235Z,5.13
2018-10-18T16:29:54.663Z,5.97
2018-10-18T16:32:22.063Z,5.50
2018-10-18T16:34:49.466Z,4.90
2018-10-18T16:37:16.857Z,7.90
2018-10-18T16:39:44.286Z,4.60
2018-10-18T16:42:11.673Z,4.83
2018-10-18T16:44:39.078Z,5.17
2018-10-18T16:47:06.504Z,6.57
2018-10-18T16:49:33.908Z,9.57
2018-10-18T16:52:01.395Z,5.70
2018-10-18T16:54:28.797Z,6.10
2018-10-18T16:56:57.150Z,6.40
2018-10-18T16:59:24.551Z,6.63
2018-10-18T17:01:52.013Z,5.93
2018-10-18T17:04:19.480Z,10.63
2018-10-18T17:06:46.810Z,6.63
2018-10-18T17:09:14.214Z,6.87
2018-10-18T17:11:41.640Z,7.97
2018-10-18T17:14:09.062Z,7.80
2018-10-18T17:16:36.462Z,7.37
2018-10-18T17:19:03.887Z,8.47
2018-10-18T17:21:31.281Z,8.60
2018-10-18T17:23:58.762Z,9.40
2018-10-18T17:26:26.151Z,9.27
2018-10-18T17:28:53.536Z,10.30
2018-10-18T17:31:20.941Z,11.77
2018-10-18T17:33:48.381Z,10.73
2018-10-18T17:36:15.824Z,9.30
2018-10-18T17:38:43.199Z,8.50
2018-10-18T17:41:10.592Z,10.83
2018-10-18T17:43:38.037Z,10.03
2018-10-18T17:46:05.499Z,8.63
2018-10-18T17:48:32.856Z,7.30
2018-10-18T17:51:00.398Z,6.80
2018-10-18T17:53:27.832Z,6.17
2018-10-18T17:55:55.278Z,6.33
2018-10-18T17:58:22.718Z,6.00
2018-10-18T18:00:50.082Z,6.37
2018-10-18T18:03:17.481Z,6.07
2018-10-18T18:05:44.973Z,7.30
2018-10-18T18:08:12.403Z,11.17
2018-10-18T18:10:39.743Z,7.83
2018-10-18T18:13:07.170Z,8.13
2018-10-18T18:15:34.629Z,6.50
2018-10-18T18:18:02.040Z,5.67
2018-10-18T18:20:29.470Z,5.90
2018-10-18T18:22:56.881Z,6.33
2018-10-18T18:25:24.298Z,5.53
2018-10-18T18:27:51.715Z,6.10
2018-10-18T18:30:19.192Z,5.97
2018-10-18T18:32:46.597Z,6.33
2018-10-18T18:35:13.991Z,6.73
2018-10-18T18:37:41.410Z,5.60
2018-10-18T18:40:08.816Z,6.10
2018-10-18T18:42:36.231Z,7.80
2018-10-18T18:45:03.704Z,6.93
2018-10-18T18:47:31.142Z,7.10
2018-10-18T18:49:58.477Z,7.60
2018-10-18T18:52:25.899Z,8.13
2018-10-18T18:54:53.291Z,7.53
2018-10-18T18:57:20.721Z,7.50
2018-10-18T18:59:48.145Z,7.23
2018-10-18T19:02:15.540Z,6.83
2018-10-18T19:04:42.962Z,6.80
2018-10-18T19:07:10.379Z,6.67
2018-10-18T19:09:37.789Z,6.10
2018-10-18T19:12:05.202Z,6.47
2018-10-18T19:14:32.611Z,5.93
2018-10-18T19:17:00.032Z,6.60
2018-10-18T19:19:27.435Z,6.03
2018-10-18T19:21:54.846Z,5.43
2018-10-18T19:24:22.291Z,5.97
2018-10-18T19:26:49.685Z,5.63
2018-10-18T19:29:17.222Z,5.50
2018-10-18T19:31:44.633Z,5.80
2018-10-18T19:34:12.186Z,4.80
2018-10-18T19:36:39.542Z,6.70
2018-10-18T19:39:06.980Z,6.10
2018-10-18T19:41:34.428Z,5.40
2018-10-18T19:44:01.874Z,5.70
2018-10-18T19:46:29.302Z,6.53
2018-10-18T19:48:56.697Z,5.93
2018-10-18T19:51:24.126Z,5.73
2018-10-18T19:53:51.551Z,6.10
2018-10-18T19:56:19.008Z,5.60
2018-10-18T19:58:46.403Z,6.17
2018-10-18T20:01:13.827Z,6.80
2018-10-18T20:03:41.295Z,8.10
2018-10-18T20:06:08.680Z,6.67
2018-10-18T20:08:36.188Z,5.73
2018-10-18T20:11:03.557Z,6.70
2018-10-18T20:13:31.011Z,6.30
2018-10-18T20:15:58.449Z,7.00
2018-10-18T20:18:26.057Z,6.33
2018-10-18T20:20:53.464Z,6.20
2018-10-18T20:23:20.897Z,6.73
2018-10-18T20:25:48.442Z,7.03
2018-10-18T20:28:15.790Z,7.20
2018-10-18T20:30:43.189Z,7.60
2018-10-18T20:33:10.682Z,6.80
2018-10-18T20:35:38.067Z,6.77
2018-10-18T20:38:05.489Z,7.27
2018-10-18T20:40:32.897Z,7.33
2018-10-18T20:43:00.331Z,8.07
2018-10-18T20:45:27.761Z,7.33
2018-10-18T20:47:55.458Z,8.00
2018-10-18T20:50:22.686Z,7.10
2018-10-18T20:52:50.108Z,7.30
2018-10-18T20:55:17.520Z,6.97
2018-10-18T20:57:44.955Z,7.80
2018-10-18T21:00:12.754Z,7.47
2018-10-18T21:02:40.099Z,7.40
2018-10-18T21:05:07.510Z,7.63
2018-10-18T21:07:34.974Z,7.87
2018-10-18T21:10:02.418Z,7.10
2018-10-18T21:12:29.878Z,8.10
2018-10-18T21:14:57.335Z,7.67
2018-10-18T21:17:24.782Z,7.23
2018-10-18T21:19:52.166Z,7.10
2018-10-18T21:22:19.578Z,6.60
2018-10-18T21:24:47.011Z,7.30
2018-10-18T21:27:14.490Z,7.20
2018-10-18T21:29:41.826Z,6.23
2018-10-18T21:32:09.302Z,7.50
2018-10-18T21:34:36.786Z,7.07
2018-10-18T21:37:04.143Z,7.07
2018-10-18T21:39:31.595Z,7.67
2018-10-18T21:41:59.145Z,7.30
2018-10-18T21:44:26.529Z,6.73
2018-10-18T21:46:53.982Z,8.13
2018-10-18T21:49:21.380Z,7.03
2018-10-18T21:51:48.800Z,7.70
2018-10-18T21:54:16.196Z,7.30
2018-10-18T21:56:43.634Z,7.23
2018-10-18T21:59:11.168Z,6.50
2018-10-18T22:01:38.470Z,6.93
2018-10-18T22:04:05.872Z,6.57
2018-10-18T22:06:33.272Z,7.20
2018-10-18T22:09:00.795Z,7.07
2018-10-18T22:11:28.202Z,6.60
2018-10-18T22:13:55.589Z,6.73
2018-10-18T22:16:23.026Z,7.73
2018-10-18T22:18:50.420Z,6.33
2018-10-18T22:21:17.836Z,5.80
2018-10-18T22:23:45.233Z,6.20
2018-10-18T22:26:12.651Z,6.60
2018-10-18T22:28:40.050Z,7.13
2018-10-18T22:31:07.483Z,7.17
2018-10-18T22:33:34.881Z,7.40
2018-10-18T22:36:02.276Z,7.83
2018-10-18T22:38:29.705Z,7.20
2018-10-18T22:40:57.131Z,6.93
2018-10-18T22:43:24.515Z,6.37
2018-10-18T22:45:51.934Z,7.17
2018-10-18T22:48:19.353Z,7.67
2018-10-18T22:50:46.755Z,6.77
2018-10-18T22:53:14.324Z,6.93
2018-10-18T22:55:41.613Z,6.67
2018-10-18T22:58:09.027Z,7.27
2018-10-18T23:00:36.437Z,7.60
2018-10-18T23:03:03.898Z,7.30
2018-10-18T23:05:31.277Z,6.67
2018-10-18T23:07:58.711Z,6.93
2018-10-18T23:10:26.133Z,7.33
2018-10-18T23:12:53.581Z,8.07
2018-10-18T23:15:20.983Z,8.03
2018-10-18T23:17:48.415Z,8.43
2018-10-18T23:20:15.826Z,9.00
2018-10-18T23:22:43.232Z,7.67
2018-10-18T23:25:10.666Z,7.97
2018-10-18T23:27:38.093Z,8.50
2018-10-18T23:30:05.541Z,7.80
2018-10-18T23:32:32.944Z,8.10
2018-10-18T23:35:00.383Z,7.73
2018-10-18T23:37:27.885Z,8.83
2018-10-18T23:39:55.313Z,8.23
2018-10-18T23:42:22.726Z,8.17
2018-10-18T23:44:50.157Z,8.10
2018-10-18T23:47:17.586Z,7.70
2018-10-18T23:49:45.014Z,9.13
2018-10-18T23:52:12.411Z,8.37
2018-10-18T23:54:39.851Z,7.90
2018-10-18T23:57:07.326Z,8.83
2018-10-18T23:59:34.656Z,8.63
